createdAt,value
2023-01-11T00:04:06.587Z,10.10
2023-01-11T00:09:08.876Z,10.20
2023-01-11T00:14:11.011Z,10.20
2023-01-11T00:19:13.259Z,10.30
2023-01-11T00:24:16.208Z,10.30
2023-01-11T00:29:18.398Z,10.30
2023-01-11T00:39:23.105Z,10.40
2023-01-11T00:49:46.334Z,10.40
2023-01-11T00:54:48.748Z,10.40
2023-01-11T00:59:50.960Z,10.40
2023-01-11T01:14:58.110Z,10.50
2023-01-11T01:20:00.248Z,10.50
2023-01-11T01:25:02.359Z,10.50
2023-01-11T01:30:06.288Z,10.50
2023-01-11T01:35:09.198Z,10.50
2023-01-11T01:40:12.186Z,10.60
2023-01-11T01:45:24.258Z,10.60
2023-01-11T01:50:32.801Z,10.60
2023-01-11T01:55:38.858Z,10.60
2023-01-11T02:00:44.318Z,10.50
2023-01-11T02:05:47.602Z,10.60
2023-01-11T02:10:50.840Z,10.60
2023-01-11T02:16:07.891Z,10.60
2023-01-11T02:21:26.041Z,10.60
2023-01-11T02:26:31.189Z,10.60
2023-01-11T02:32:17.296Z,10.60
2023-01-11T02:37:42.730Z,10.80
2023-01-11T02:43:11.572Z,10.60
2023-01-11T02:48:35.664Z,10.60
2023-01-11T02:53:55.413Z,10.60
2023-01-11T02:58:58.561Z,10.70
2023-01-11T03:04:00.664Z,10.70
2023-01-11T03:09:30.813Z,10.80
2023-01-11T03:14:46.844Z,10.80
2023-01-11T03:19:54.662Z,10.80
2023-01-11T03:25:24.622Z,10.90
2023-01-11T03:30:32.149Z,10.90
2023-01-11T03:35:48.450Z,10.90
2023-01-11T03:41:01.197Z,11.00
2023-01-11T03:46:03.237Z,11.00
2023-01-11T03:51:10.161Z,11.10
2023-01-11T03:56:16.418Z,11.00
2023-01-11T04:06:21.778Z,11.10
2023-01-11T04:11:23.919Z,11.20
2023-01-11T04:31:33.596Z,11.20
2023-01-11T04:36:35.736Z,11.20
2023-01-11T04:41:57.330Z,11.30
2023-01-11T04:46:59.466Z,11.30
2023-01-11T04:52:01.567Z,11.30
2023-01-11T04:57:03.860Z,11.30
2023-01-11T05:02:06.825Z,11.40
2023-01-11T05:07:09.885Z,11.40
2023-01-11T05:17:15.059Z,11.40
2023-01-11T05:22:17.201Z,11.40
2023-01-11T05:27:19.284Z,11.40
2023-01-11T05:32:21.364Z,11.50
2023-01-11T05:37:23.492Z,11.50
2023-01-11T05:42:25.612Z,11.50
2023-01-11T05:52:30.527Z,11.50
2023-01-11T06:02:35.756Z,11.50
2023-01-11T06:12:40.492Z,11.60
2023-01-11T06:17:42.653Z,11.60
2023-01-11T06:22:44.753Z,11.60
2023-01-11T06:37:52.004Z,11.70
2023-01-11T06:47:56.965Z,11.80
2023-01-11T06:53:01.952Z,11.80
2023-01-11T06:58:04.217Z,11.90
2023-01-11T07:03:06.889Z,11.90
2023-01-11T07:08:08.919Z,11.90
2023-01-11T07:23:17.419Z,12.00
2023-01-11T07:28:19.588Z,12.00
2023-01-11T07:33:22.589Z,12.00
2023-01-11T07:43:27.416Z,12.10
2023-01-11T07:48:30.811Z,12.10
2023-01-11T07:58:35.548Z,12.10
2023-01-11T08:03:37.802Z,12.20
2023-01-11T08:14:01.457Z,12.20
2023-01-11T08:19:04.397Z,12.20
2023-01-11T08:24:06.760Z,12.20
2023-01-11T08:34:12.109Z,12.20
2023-01-11T08:39:14.589Z,12.20
2023-01-11T08:44:29.013Z,12.20
2023-01-11T08:49:35.378Z,12.30
2023-01-11T08:54:37.585Z,12.30
2023-01-11T08:59:39.766Z,12.30
2023-01-11T09:04:42.254Z,12.40
2023-01-11T09:09:44.417Z,12.30
2023-01-11T09:14:46.610Z,12.40
2023-01-11T09:19:48.779Z,12.40
2023-01-11T09:29:53.483Z,12.50
2023-01-11T09:34:58.262Z,12.50
2023-01-11T09:40:01.737Z,12.50
2023-01-11T09:55:23.118Z,12.70
2023-01-11T10:00:36.113Z,12.70
2023-01-11T10:06:06.878Z,12.70
2023-01-11T10:18:25.527Z,12.70
2023-01-11T10:22:58.259Z,12.80
2023-01-11T10:28:04.614Z,12.80
2023-01-11T10:33:25.303Z,12.90
2023-01-11T10:38:49.859Z,12.90
2023-01-11T10:44:18.979Z,13.00
2023-01-11T10:49:41.121Z,13.00
2023-01-11T10:54:47.413Z,13.10
2023-01-11T11:00:09.256Z,13.20
2023-01-11T11:05:30.271Z,13.20
2023-01-11T11:10:51.226Z,13.30
2023-01-11T11:16:10.443Z,13.30
2023-01-11T11:21:36.973Z,13.50
2023-01-11T11:26:53.806Z,13.60
2023-01-11T11:31:58.719Z,13.70
2023-01-11T11:37:01.467Z,13.80
2023-01-11T11:42:08.002Z,13.90
2023-01-11T11:47:17.499Z,14.10
2023-01-11T11:52:19.904Z,14.20
2023-01-11T11:57:33.964Z,14.20
2023-01-11T12:02:38.729Z,14.30
2023-01-11T12:07:54.650Z,14.40
2023-01-11T12:13:03.238Z,14.40
2023-01-11T12:18:26.999Z,14.50
2023-01-11T12:23:29.576Z,14.50
2023-01-11T12:28:37.160Z,14.60
2023-01-11T12:33:58.725Z,14.60
2023-01-11T12:39:05.033Z,14.70
2023-01-11T12:44:12.126Z,14.80
2023-01-11T12:49:30.969Z,14.80
2023-01-11T12:55:09.706Z,14.70
2023-01-11T13:00:14.735Z,14.70
2023-01-11T13:10:31.826Z,14.70
2023-01-11T13:15:43.982Z,14.70
2023-01-11T13:21:25.936Z,14.70
2023-01-11T13:26:39.009Z,14.70
2023-01-11T13:31:42.323Z,14.70
2023-01-11T13:36:48.847Z,14.70
2023-01-11T13:41:53.771Z,14.70
2023-01-11T13:47:01.743Z,14.60
2023-01-11T13:52:12.258Z,14.60
2023-01-11T13:57:30.355Z,14.40
2023-01-11T14:02:51.015Z,14.50
2023-01-11T14:08:00.880Z,14.40
2023-01-11T14:13:50.876Z,14.40
2023-01-11T14:19:31.623Z,14.40
2023-01-11T14:24:37.072Z,14.30
2023-01-11T14:29:48.154Z,14.30
2023-01-11T14:35:11.914Z,14.20
2023-01-11T14:40:34.268Z,14.30
2023-01-11T14:45:56.386Z,14.10
2023-01-11T14:51:17.114Z,14.10
2023-01-11T14:56:41.980Z,13.90
2023-01-11T15:02:03.119Z,13.90
2023-01-11T15:07:41.874Z,13.80
2023-01-11T15:12:44.056Z,13.80
2023-01-11T15:18:12.461Z,13.80
2023-01-11T15:23:17.476Z,13.70
2023-01-11T15:33:48.724Z,13.60
2023-01-11T15:38:56.695Z,13.60
2023-01-11T15:44:20.350Z,13.50
2023-01-11T15:49:41.007Z,13.40
2023-01-11T15:55:28.596Z,13.30
2023-01-11T16:00:36.165Z,13.30
2023-01-11T16:05:44.042Z,13.20
2023-01-11T16:11:08.263Z,13.10
2023-01-11T16:16:28.982Z,13.10
2023-01-11T16:21:36.472Z,13.10
2023-01-11T16:26:41.003Z,13.00
2023-01-11T16:32:02.884Z,13.00
2023-01-11T16:37:22.974Z,12.90
2023-01-11T16:42:29.708Z,12.80
2023-01-11T16:47:31.879Z,12.80
2023-01-11T16:57:45.532Z,12.70
2023-01-11T17:02:50.064Z,12.70
2023-01-11T17:07:52.162Z,12.70
2023-01-11T17:13:33.958Z,12.60
2023-01-11T17:18:41.063Z,12.50
2023-01-11T17:23:45.622Z,12.40
2023-01-11T17:28:50.116Z,12.40
2023-01-11T17:34:25.759Z,12.30
2023-01-11T17:39:34.534Z,12.30
2023-01-11T17:44:55.404Z,12.20
2023-01-11T17:50:01.035Z,12.40
2023-01-11T17:55:19.319Z,12.10
2023-01-11T18:00:28.026Z,12.10
2023-01-11T18:05:30.540Z,11.90
2023-01-11T18:15:38.431Z,11.70
2023-01-11T18:20:41.112Z,11.60
2023-01-11T18:30:54.413Z,11.50
2023-01-11T18:35:59.746Z,11.40
2023-01-11T18:41:27.164Z,11.30
2023-01-11T18:46:29.280Z,11.30
2023-01-11T18:51:40.170Z,11.30
2023-01-11T19:01:56.629Z,11.30
2023-01-11T19:07:06.908Z,11.30
2023-01-11T19:12:09.024Z,11.30
2023-01-11T19:17:12.307Z,11.30
2023-01-11T19:22:14.654Z,11.30
2023-01-11T19:27:16.921Z,11.40
2023-01-11T19:32:23.637Z,11.50
2023-01-11T19:37:27.633Z,11.60
2023-01-11T19:42:30.079Z,11.70
2023-01-11T19:47:32.247Z,11.70
2023-01-11T19:52:34.344Z,11.70
2023-01-11T19:57:36.716Z,11.70
2023-01-11T20:02:39.261Z,11.80
2023-01-11T20:07:41.380Z,11.60
2023-01-11T20:12:43.501Z,11.60
2023-01-11T20:17:45.617Z,11.50
2023-01-11T20:22:47.760Z,11.50
2023-01-11T20:27:49.841Z,11.40
2023-01-11T20:32:51.968Z,11.30
2023-01-11T20:37:54.076Z,11.30
2023-01-11T20:42:56.143Z,11.20
2023-01-11T20:47:59.327Z,11.20
2023-01-11T20:53:04.081Z,11.00
2023-01-11T20:58:06.167Z,11.20
2023-01-11T21:08:10.828Z,11.10
2023-01-11T21:18:15.946Z,11.20
2023-01-11T21:23:18.059Z,11.20
2023-01-11T21:28:20.304Z,11.20
2023-01-11T21:33:22.456Z,11.20
2023-01-11T21:38:24.601Z,11.20
2023-01-11T21:48:29.882Z,11.20
2023-01-11T21:53:33.046Z,11.20
2023-01-11T22:03:38.311Z,11.20
2023-01-11T22:08:41.569Z,11.20
2023-01-11T22:13:43.960Z,11.20
2023-01-11T22:18:46.379Z,11.20
2023-01-11T22:23:52.429Z,11.20
2023-01-11T22:29:15.034Z,11.30
2023-01-11T22:34:18.533Z,11.30
2023-01-11T22:39:21.490Z,11.30
2023-01-11T22:44:23.597Z,11.30
2023-01-11T22:49:26.508Z,11.30
2023-01-11T22:59:31.299Z,11.30
2023-01-11T23:09:36.342Z,11.40
2023-01-11T23:19:41.674Z,11.40
2023-01-11T23:24:43.854Z,11.50
2023-01-11T23:29:46.005Z,11.60
2023-01-11T23:34:48.153Z,11.60
2023-01-11T23:44:53.529Z,11.80
2023-01-11T23:49:57.652Z,11.80
2023-01-11T23:55:00.183Z,11.80
